NFFN METAR and TAF | Updated Today

NFFN METAR

Nadi International Airport

Observation time: 27 min. ago

NFFN 292000Z 13006KT 9999 FEW030 SCT300 25/18 Q1015 NOSIG

Need help? Read our tutorial on how to read METARs or read the parsed version below.

Nadi International Airport (NFFN) METAR

  • Weather conditions on Thu, 29 Sep 2022 20:00:00 +0000 (27 min. ago):
  • Present conditions: Dry
  • Clouds: A few at 914 meters; scattered at 9144 meters
  • Visibility: Greater than 10 km
  • Wind: 130 degrees at 6 knots
  • Temperature: 25 celsius
  • Dew point: 18 celsius
  • Pressure: 1015 millibars
  • Remarks: None


Useful to know...

NFFN TAF

Nadi International Airport

TAF NFFN 291704Z 2918/3018 14006KT 9999 SCT028 BECMG 2922/2924 31012KT BECMG 3004/3006 14006KT
Observation time: 3:23 hr. ago
Need help? Read our tutorial on how to read TAFs or read the parsed version below.

Parsed version of TAF for Nadi International Airport (NFFN)

  • From 29 September at 18:00 UTC, to day 30 of the month at 18:00 UTC
  • Clouds: Scattered at 853 meters
  • Visibility: Greater than 10 km
  • Wind: 140 degrees at 6
  • Expected to arise soon, from 29 September at 22:00 UTC, to day 29 of the month at 24:00 UTC
  • Wind: 310 degrees at 12
  • Expected to arise soon, from 30 September at 04:00 UTC, to day 30 of the month at 06:00 UTC
  • Wind: 140 degrees at 6

Airports near NFFN

No airports found within 100nm radius.